Old Town, Iowa
Current Conditions -  °F | °C
As of 9:53 AM on Wednesday 28 Jan 2015 (Local Time) from KSPW Reporting Station
Haze Haze  
Wind Chill: 19°   Ceiling: 400
Heat Index: 32°   Visibility: 3mi
Dew Point: 29°   Wind: 23mph
Humidity: 88%   Direction: 150°SSE
Pressure: 29.84"   Gusts: 29mph
Location:  43.2989°N, 95.2104°W
Report Text: KSPW 281553Z AUTO 15020G25KT 3SM BR OVC004 00/M02 A2984 RMK AO2 SLP119 T00001017 TSNO
Loading
Personal Weather Stations






























Interactive Weather Map New forecast layout! Learn more

10-Day Weather Forecast

Advertisements
Track Severe Weather on mobile